sensor_id;sensor_type;location;lat;lon;timestamp;P1;durP1;ratioP1;P2;durP2;ratioP2
12780;SDS011;6454;43.304;24.344;2022-10-23T00:00:14;11.45;;;7.38;;
12780;SDS011;6454;43.304;24.344;2022-10-23T00:02:41;10.18;;;7.00;;
12780;SDS011;6454;43.304;24.344;2022-10-23T00:05:08;10.60;;;6.68;;
12780;SDS011;6454;43.304;24.344;2022-10-23T00:07:36;11.50;;;7.40;;
12780;SDS011;6454;43.304;24.344;2022-10-23T00:10:04;9.88;;;7.63;;
12780;SDS011;6454;43.304;24.344;2022-10-23T00:12:31;12.23;;;7.43;;
12780;SDS011;6454;43.304;24.344;2022-10-23T00:14:58;9.60;;;7.22;;
12780;SDS011;6454;43.304;24.344;2022-10-23T00:17:25;11.02;;;7.88;;
12780;SDS011;6454;43.304;24.344;2022-10-23T00:19:52;12.02;;;7.57;;
12780;SDS011;6454;43.304;24.344;2022-10-23T00:22:19;9.43;;;7.25;;
12780;SDS011;6454;43.304;24.344;2022-10-23T00:24:47;8.98;;;7.03;;
12780;SDS011;6454;43.304;24.344;2022-10-23T00:27:14;9.70;;;7.28;;
12780;SDS011;6454;43.304;24.344;2022-10-23T00:29:41;9.55;;;8.10;;
12780;SDS011;6454;43.304;24.344;2022-10-23T00:32:09;11.80;;;7.50;;
12780;SDS011;6454;43.304;24.344;2022-10-23T00:34:36;10.73;;;7.90;;
12780;SDS011;6454;43.304;24.344;2022-10-23T00:37:03;12.27;;;7.80;;
12780;SDS011;6454;43.304;24.344;2022-10-23T00:39:30;13.73;;;7.60;;
12780;SDS011;6454;43.304;24.344;2022-10-23T00:41:58;11.65;;;8.85;;
12780;SDS011;6454;43.304;24.344;2022-10-23T00:47:29;11.45;;;8.05;;
12780;SDS011;6454;43.304;24.344;2022-10-23T00:49:56;12.95;;;8.20;;
12780;SDS011;6454;43.304;24.344;2022-10-23T00:52:25;13.25;;;8.15;;
12780;SDS011;6454;43.304;24.344;2022-10-23T00:54:53;13.48;;;9.38;;
12780;SDS011;6454;43.304;24.344;2022-10-23T00:57:23;11.35;;;8.57;;
12780;SDS011;6454;43.304;24.344;2022-10-23T00:59:50;13.52;;;8.77;;
12780;SDS011;6454;43.304;24.344;2022-10-23T01:02:17;13.30;;;8.10;;
12780;SDS011;6454;43.304;24.344;2022-10-23T01:04:44;13.45;;;9.80;;
12780;SDS011;6454;43.304;24.344;2022-10-23T01:07:12;11.07;;;8.60;;
12780;SDS011;6454;43.304;24.344;2022-10-23T01:09:43;11.35;;;8.10;;
12780;SDS011;6454;43.304;24.344;2022-10-23T01:12:17;13.40;;;8.60;;
12780;SDS011;6454;43.304;24.344;2022-10-23T01:14:52;10.15;;;7.97;;
12780;SDS011;6454;43.304;24.344;2022-10-23T01:17:26;12.60;;;8.30;;
12780;SDS011;6454;43.304;24.344;2022-10-23T01:20:01;12.27;;;9.20;;
12780;SDS011;6454;43.304;24.344;2022-10-23T01:22:45;14.07;;;8.55;;
12780;SDS011;6454;43.304;24.344;2022-10-23T01:25:34;9.25;;;8.25;;
12780;SDS011;6454;43.304;24.344;2022-10-23T01:28:22;13.10;;;8.90;;
12780;SDS011;6454;43.304;24.344;2022-10-23T01:30:52;14.23;;;8.73;;
12780;SDS011;6454;43.304;24.344;2022-10-23T01:33:21;12.98;;;9.02;;
12780;SDS011;6454;43.304;24.344;2022-10-23T01:35:53;10.95;;;8.13;;
12780;SDS011;6454;43.304;24.344;2022-10-23T01:38:27;11.95;;;8.43;;
12780;SDS011;6454;43.304;24.344;2022-10-23T01:41:01;11.35;;;7.97;;
12780;SDS011;6454;43.304;24.344;2022-10-23T01:43:35;11.23;;;8.70;;
12780;SDS011;6454;43.304;24.344;2022-10-23T01:46:08;10.02;;;8.43;;
12780;SDS011;6454;43.304;24.344;2022-10-23T01:48:39;11.70;;;8.27;;
12780;SDS011;6454;43.304;24.344;2022-10-23T01:51:08;10.80;;;8.55;;
12780;SDS011;6454;43.304;24.344;2022-10-23T01:53:38;11.52;;;8.65;;
12780;SDS011;6454;43.304;24.344;2022-10-23T01:56:09;11.10;;;8.68;;
12780;SDS011;6454;43.304;24.344;2022-10-23T01:58:40;11.80;;;8.63;;
12780;SDS011;6454;43.304;24.344;2022-10-23T02:01:10;11.43;;;8.30;;
12780;SDS011;6454;43.304;24.344;2022-10-23T02:03:40;16.10;;;8.15;;
12780;SDS011;6454;43.304;24.344;2022-10-23T02:06:09;10.60;;;8.10;;
12780;SDS011;6454;43.304;24.344;2022-10-23T02:08:36;10.05;;;7.55;;
12780;SDS011;6454;43.304;24.344;2022-10-23T02:11:05;13.80;;;7.97;;
12780;SDS011;6454;43.304;24.344;2022-10-23T02:13:35;12.65;;;8.05;;
12780;SDS011;6454;43.304;24.344;2022-10-23T02:16:09;13.48;;;8.60;;
12780;SDS011;6454;43.304;24.344;2022-10-23T02:18:48;11.68;;;7.97;;
12780;SDS011;6454;43.304;24.344;2022-10-23T02:21:21;12.88;;;8.45;;
12780;SDS011;6454;43.304;24.344;2022-10-23T02:23:55;13.52;;;8.38;;
12780;SDS011;6454;43.304;24.344;2022-10-23T02:26:27;9.70;;;7.43;;
12780;SDS011;6454;43.304;24.344;2022-10-23T02:29:02;11.25;;;7.72;;
12780;SDS011;6454;43.304;24.344;2022-10-23T02:31:33;14.55;;;7.88;;
12780;SDS011;6454;43.304;24.344;2022-10-23T02:34:00;10.48;;;7.65;;
12780;SDS011;6454;43.304;24.344;2022-10-23T02:36:27;12.00;;;7.75;;
12780;SDS011;6454;43.304;24.344;2022-10-23T02:38:54;12.15;;;8.35;;
12780;SDS011;6454;43.304;24.344;2022-10-23T02:41:24;11.13;;;8.93;;
12780;SDS011;6454;43.304;24.344;2022-10-23T02:44:07;15.00;;;9.20;;
12780;SDS011;6454;43.304;24.344;2022-10-23T02:46:47;10.13;;;7.75;;
12780;SDS011;6454;43.304;24.344;2022-10-23T02:49:20;13.05;;;8.00;;
12780;SDS011;6454;43.304;24.344;2022-10-23T02:51:54;11.90;;;7.38;;
12780;SDS011;6454;43.304;24.344;2022-10-23T02:54:30;8.50;;;6.82;;
12780;SDS011;6454;43.304;24.344;2022-10-23T02:57:14;9.63;;;6.13;;
12780;SDS011;6454;43.304;24.344;2022-10-23T02:59:50;11.07;;;6.55;;
12780;SDS011;6454;43.304;24.344;2022-10-23T03:02:29;15.25;;;7.22;;
12780;SDS011;6454;43.304;24.344;2022-10-23T03:05:00;10.90;;;7.55;;
12780;SDS011;6454;43.304;24.344;2022-10-23T03:07:30;13.27;;;7.38;;
12780;SDS011;6454;43.304;24.344;2022-10-23T03:09:57;11.27;;;7.18;;
12780;SDS011;6454;43.304;24.344;2022-10-23T03:12:24;11.27;;;7.38;;
12780;SDS011;6454;43.304;24.344;2022-10-23T03:14:51;10.13;;;7.30;;
12780;SDS011;6454;43.304;24.344;2022-10-23T03:17:18;10.13;;;6.53;;
12780;SDS011;6454;43.304;24.344;2022-10-23T03:19:46;11.68;;;6.65;;
12780;SDS011;6454;43.304;24.344;2022-10-23T03:22:13;9.55;;;6.82;;
12780;SDS011;6454;43.304;24.344;2022-10-23T03:24:40;11.18;;;6.68;;
12780;SDS011;6454;43.304;24.344;2022-10-23T03:27:07;9.02;;;6.53;;
12780;SDS011;6454;43.304;24.344;2022-10-23T03:29:35;9.63;;;6.65;;
12780;SDS011;6454;43.304;24.344;2022-10-23T03:32:02;11.75;;;6.70;;
12780;SDS011;6454;43.304;24.344;2022-10-23T03:34:29;10.40;;;6.45;;
12780;SDS011;6454;43.304;24.344;2022-10-23T03:36:58;8.82;;;6.40;;
12780;SDS011;6454;43.304;24.344;2022-10-23T03:39:25;9.77;;;6.75;;
12780;SDS011;6454;43.304;24.344;2022-10-23T03:41:52;9.98;;;6.82;;
12780;SDS011;6454;43.304;24.344;2022-10-23T03:44:19;9.65;;;6.60;;
12780;SDS011;6454;43.304;24.344;2022-10-23T03:46:45;13.13;;;6.53;;
12780;SDS011;6454;43.304;24.344;2022-10-23T03:49:12;12.70;;;6.40;;
12780;SDS011;6454;43.304;24.344;2022-10-23T03:51:39;8.40;;;6.30;;
12780;SDS011;6454;43.304;24.344;2022-10-23T03:54:08;13.52;;;6.57;;
12780;SDS011;6454;43.304;24.344;2022-10-23T03:56:35;8.75;;;6.15;;
12780;SDS011;6454;43.304;24.344;2022-10-23T03:59:02;10.02;;;6.10;;
12780;SDS011;6454;43.304;24.344;2022-10-23T04:01:29;10.15;;;6.60;;
12780;SDS011;6454;43.304;24.344;2022-10-23T04:03:56;9.10;;;6.47;;
12780;SDS011;6454;43.304;24.344;2022-10-23T04:06:23;8.82;;;6.28;;
12780;SDS011;6454;43.304;24.344;2022-10-23T04:08:50;10.05;;;6.30;;
12780;SDS011;6454;43.304;24.344;2022-10-23T04:11:18;9.98;;;6.40;;
12780;SDS011;6454;43.304;24.344;2022-10-23T04:13:45;11.63;;;6.22;;
12780;SDS011;6454;43.304;24.344;2022-10-23T04:16:12;10.05;;;5.90;;
12780;SDS011;6454;43.304;24.344;2022-10-23T04:18:39;11.40;;;6.25;;
12780;SDS011;6454;43.304;24.344;2022-10-23T04:21:06;9.55;;;6.38;;
12780;SDS011;6454;43.304;24.344;2022-10-23T04:23:33;8.50;;;6.05;;
12780;SDS011;6454;43.304;24.344;2022-10-23T04:26:01;8.50;;;6.15;;
12780;SDS011;6454;43.304;24.344;2022-10-23T04:28:30;7.75;;;5.85;;
12780;SDS011;6454;43.304;24.344;2022-10-23T04:30:56;8.93;;;6.18;;
12780;SDS011;6454;43.304;24.344;2022-10-23T04:33:23;8.55;;;6.13;;
12780;SDS011;6454;43.304;24.344;2022-10-23T04:35:51;9.48;;;6.15;;
12780;SDS011;6454;43.304;24.344;2022-10-23T04:38:18;9.50;;;5.70;;
12780;SDS011;6454;43.304;24.344;2022-10-23T04:40:45;8.75;;;6.30;;
12780;SDS011;6454;43.304;24.344;2022-10-23T04:43:12;8.32;;;6.07;;
12780;SDS011;6454;43.304;24.344;2022-10-23T04:45:41;9.35;;;6.25;;
12780;SDS011;6454;43.304;24.344;2022-10-23T04:48:08;11.23;;;6.07;;
12780;SDS011;6454;43.304;24.344;2022-10-23T04:50:35;8.18;;;5.75;;
12780;SDS011;6454;43.304;24.344;2022-10-23T04:53:02;12.30;;;5.80;;
12780;SDS011;6454;43.304;24.344;2022-10-23T04:55:29;7.70;;;5.70;;
12780;SDS011;6454;43.304;24.344;2022-10-23T04:57:56;9.98;;;5.15;;
12780;SDS011;6454;43.304;24.344;2022-10-23T05:00:23;11.45;;;5.97;;
12780;SDS011;6454;43.304;24.344;2022-10-23T05:02:51;7.43;;;5.47;;
12780;SDS011;6454;43.304;24.344;2022-10-23T05:05:18;6.97;;;5.82;;
12780;SDS011;6454;43.304;24.344;2022-10-23T05:07:45;9.73;;;5.53;;
12780;SDS011;6454;43.304;24.344;2022-10-23T05:10:12;6.78;;;5.47;;
12780;SDS011;6454;43.304;24.344;2022-10-23T05:12:39;7.78;;;5.05;;
12780;SDS011;6454;43.304;24.344;2022-10-23T05:15:06;9.18;;;5.65;;
12780;SDS011;6454;43.304;24.344;2022-10-23T05:17:34;6.47;;;5.53;;
12780;SDS011;6454;43.304;24.344;2022-10-23T05:20:05;6.70;;;5.75;;
12780;SDS011;6454;43.304;24.344;2022-10-23T05:22:36;7.88;;;5.90;;
12780;SDS011;6454;43.304;24.344;2022-10-23T05:25:06;8.75;;;5.65;;
12780;SDS011;6454;43.304;24.344;2022-10-23T05:27:34;6.95;;;5.80;;
12780;SDS011;6454;43.304;24.344;2022-10-23T05:30:02;12.43;;;6.10;;
12780;SDS011;6454;43.304;24.344;2022-10-23T05:32:30;6.80;;;5.65;;
12780;SDS011;6454;43.304;24.344;2022-10-23T05:34:59;8.57;;;5.13;;
12780;SDS011;6454;43.304;24.344;2022-10-23T05:37:29;6.03;;;5.28;;
12780;SDS011;6454;43.304;24.344;2022-10-23T05:39:56;7.18;;;4.97;;
12780;SDS011;6454;43.304;24.344;2022-10-23T05:42:23;9.68;;;5.53;;
12780;SDS011;6454;43.304;24.344;2022-10-23T05:44:50;12.27;;;5.90;;
12780;SDS011;6454;43.304;24.344;2022-10-23T05:47:17;7.28;;;4.60;;
12780;SDS011;6454;43.304;24.344;2022-10-23T05:49:44;6.85;;;5.03;;
12780;SDS011;6454;43.304;24.344;2022-10-23T05:52:11;6.45;;;4.90;;
12780;SDS011;6454;43.304;24.344;2022-10-23T05:54:39;5.40;;;4.82;;
12780;SDS011;6454;43.304;24.344;2022-10-23T05:57:06;7.68;;;4.85;;
12780;SDS011;6454;43.304;24.344;2022-10-23T05:59:33;5.97;;;5.30;;
12780;SDS011;6454;43.304;24.344;2022-10-23T06:02:00;10.70;;;4.70;;
12780;SDS011;6454;43.304;24.344;2022-10-23T06:04:27;10.18;;;5.07;;
12780;SDS011;6454;43.304;24.344;2022-10-23T06:06:54;4.72;;;4.03;;
12780;SDS011;6454;43.304;24.344;2022-10-23T06:09:20;5.40;;;4.25;;
12780;SDS011;6454;43.304;24.344;2022-10-23T06:11:49;4.80;;;4.30;;
12780;SDS011;6454;43.304;24.344;2022-10-23T06:14:16;5.03;;;4.50;;
12780;SDS011;6454;43.304;24.344;2022-10-23T06:16:42;6.97;;;4.28;;
12780;SDS011;6454;43.304;24.344;2022-10-23T06:19:09;7.50;;;3.83;;
12780;SDS011;6454;43.304;24.344;2022-10-23T06:21:37;4.40;;;4.00;;
12780;SDS011;6454;43.304;24.344;2022-10-23T06:24:04;6.38;;;3.55;;
12780;SDS011;6454;43.304;24.344;2022-10-23T06:26:32;4.43;;;3.80;;
12780;SDS011;6454;43.304;24.344;2022-10-23T06:29:01;4.38;;;3.72;;
12780;SDS011;6454;43.304;24.344;2022-10-23T06:31:28;5.35;;;3.47;;
12780;SDS011;6454;43.304;24.344;2022-10-23T06:33:55;3.85;;;3.33;;
12780;SDS011;6454;43.304;24.344;2022-10-23T06:36:23;4.63;;;3.30;;
12780;SDS011;6454;43.304;24.344;2022-10-23T06:38:50;3.78;;;3.17;;
12780;SDS011;6454;43.304;24.344;2022-10-23T06:41:18;4.00;;;3.25;;
12780;SDS011;6454;43.304;24.344;2022-10-23T06:43:47;3.50;;;3.20;;
12780;SDS011;6454;43.304;24.344;2022-10-23T06:46:16;4.25;;;3.20;;
12780;SDS011;6454;43.304;24.344;2022-10-23T06:48:44;3.95;;;3.10;;
12780;SDS011;6454;43.304;24.344;2022-10-23T06:51:12;5.05;;;3.15;;
12780;SDS011;6454;43.304;24.344;2022-10-23T06:53:41;3.50;;;2.88;;
12780;SDS011;6454;43.304;24.344;2022-10-23T06:56:08;5.35;;;2.70;;
12780;SDS011;6454;43.304;24.344;2022-10-23T06:58:37;3.70;;;2.40;;
12780;SDS011;6454;43.304;24.344;2022-10-23T07:01:05;4.43;;;2.50;;
12780;SDS011;6454;43.304;24.344;2022-10-23T07:03:35;3.28;;;2.50;;
12780;SDS011;6454;43.304;24.344;2022-10-23T07:06:02;6.57;;;2.50;;
12780;SDS011;6454;43.304;24.344;2022-10-23T07:08:29;3.85;;;2.30;;
12780;SDS011;6454;43.304;24.344;2022-10-23T07:10:56;3.00;;;2.10;;
12780;SDS011;6454;43.304;24.344;2022-10-23T07:13:27;2.10;;;1.90;;
12780;SDS011;6454;43.304;24.344;2022-10-23T07:15:55;5.07;;;2.00;;
12780;SDS011;6454;43.304;24.344;2022-10-23T07:18:22;2.78;;;1.88;;
12780;SDS011;6454;43.304;24.344;2022-10-23T07:20:55;4.88;;;1.77;;
12780;SDS011;6454;43.304;24.344;2022-10-23T07:23:23;4.20;;;2.13;;
12780;SDS011;6454;43.304;24.344;2022-10-23T07:25:50;4.97;;;1.75;;
12780;SDS011;6454;43.304;24.344;2022-10-23T07:28:17;5.78;;;1.92;;
12780;SDS011;6454;43.304;24.344;2022-10-23T07:30:44;4.68;;;1.83;;
12780;SDS011;6454;43.304;24.344;2022-10-23T07:33:11;2.45;;;1.63;;
12780;SDS011;6454;43.304;24.344;2022-10-23T07:35:38;4.65;;;1.80;;
12780;SDS011;6454;43.304;24.344;2022-10-23T07:38:07;4.97;;;1.67;;
12780;SDS011;6454;43.304;24.344;2022-10-23T07:40:33;5.47;;;1.80;;
12780;SDS011;6454;43.304;24.344;2022-10-23T07:43:00;2.47;;;1.40;;
12780;SDS011;6454;43.304;24.344;2022-10-23T07:45:28;4.93;;;1.73;;
12780;SDS011;6454;43.304;24.344;2022-10-23T07:47:54;3.42;;;1.45;;
12780;SDS011;6454;43.304;24.344;2022-10-23T07:50:21;4.60;;;1.73;;
12780;SDS011;6454;43.304;24.344;2022-10-23T07:52:48;7.13;;;1.70;;
12780;SDS011;6454;43.304;24.344;2022-10-23T07:55:17;4.25;;;1.52;;
12780;SDS011;6454;43.304;24.344;2022-10-23T07:57:44;1.50;;;1.38;;
12780;SDS011;6454;43.304;24.344;2022-10-23T08:00:11;3.53;;;1.40;;
12780;SDS011;6454;43.304;24.344;2022-10-23T08:02:38;11.30;;;2.08;;
12780;SDS011;6454;43.304;24.344;2022-10-23T08:05:05;1.70;;;1.30;;
12780;SDS011;6454;43.304;24.344;2022-10-23T08:07:33;4.20;;;1.55;;
12780;SDS011;6454;43.304;24.344;2022-10-23T08:10:00;4.53;;;1.67;;
12780;SDS011;6454;43.304;24.344;2022-10-23T08:12:29;4.38;;;1.45;;
12780;SDS011;6454;43.304;24.344;2022-10-23T08:14:56;2.15;;;1.63;;
12780;SDS011;6454;43.304;24.344;2022-10-23T08:17:22;1.73;;;1.48;;
12780;SDS011;6454;43.304;24.344;2022-10-23T08:19:49;2.42;;;1.80;;
12780;SDS011;6454;43.304;24.344;2022-10-23T08:22:16;2.17;;;1.40;;
12780;SDS011;6454;43.304;24.344;2022-10-23T08:24:43;3.92;;;1.77;;
12780;SDS011;6454;43.304;24.344;2022-10-23T08:27:10;3.63;;;1.55;;
12780;SDS011;6454;43.304;24.344;2022-10-23T08:29:38;9.18;;;1.95;;
12780;SDS011;6454;43.304;24.344;2022-10-23T08:32:05;2.25;;;1.60;;
12780;SDS011;6454;43.304;24.344;2022-10-23T08:34:32;4.03;;;1.52;;
12780;SDS011;6454;43.304;24.344;2022-10-23T08:37:01;2.38;;;1.40;;
12780;SDS011;6454;43.304;24.344;2022-10-23T08:39:29;15.93;;;2.72;;
12780;SDS011;6454;43.304;24.344;2022-10-23T08:41:56;2.45;;;1.35;;
12780;SDS011;6454;43.304;24.344;2022-10-23T08:44:24;2.00;;;1.70;;
12780;SDS011;6454;43.304;24.344;2022-10-23T08:47:01;4.68;;;1.48;;
12780;SDS011;6454;43.304;24.344;2022-10-23T08:49:35;1.42;;;1.33;;
12780;SDS011;6454;43.304;24.344;2022-10-23T08:52:15;2.63;;;1.55;;
12780;SDS011;6454;43.304;24.344;2022-10-23T08:54:52;5.03;;;1.40;;
12780;SDS011;6454;43.304;24.344;2022-10-23T08:57:31;6.10;;;1.60;;
12780;SDS011;6454;43.304;24.344;2022-10-23T09:00:04;2.92;;;1.40;;
12780;SDS011;6454;43.304;24.344;2022-10-23T09:02:36;1.63;;;1.40;;
12780;SDS011;6454;43.304;24.344;2022-10-23T09:05:10;1.30;;;1.20;;
12780;SDS011;6454;43.304;24.344;2022-10-23T09:07:43;2.65;;;1.33;;
12780;SDS011;6454;43.304;24.344;2022-10-23T09:10:24;5.20;;;1.60;;
12780;SDS011;6454;43.304;24.344;2022-10-23T09:13:19;2.50;;;1.48;;
12780;SDS011;6454;43.304;24.344;2022-10-23T09:15:57;2.92;;;1.50;;
12780;SDS011;6454;43.304;24.344;2022-10-23T09:18:33;3.40;;;1.75;;
12780;SDS011;6454;43.304;24.344;2022-10-23T09:21:00;3.50;;;1.23;;
12780;SDS011;6454;43.304;24.344;2022-10-23T09:23:27;3.20;;;1.60;;
12780;SDS011;6454;43.304;24.344;2022-10-23T09:25:54;4.53;;;1.92;;
12780;SDS011;6454;43.304;24.344;2022-10-23T09:28:22;1.70;;;1.50;;
12780;SDS011;6454;43.304;24.344;2022-10-23T09:30:50;2.60;;;1.40;;
12780;SDS011;6454;43.304;24.344;2022-10-23T09:33:18;3.38;;;1.35;;
12780;SDS011;6454;43.304;24.344;2022-10-23T09:35:52;2.95;;;1.50;;
12780;SDS011;6454;43.304;24.344;2022-10-23T09:38:24;3.05;;;1.48;;
12780;SDS011;6454;43.304;24.344;2022-10-23T09:40:53;5.95;;;1.60;;
12780;SDS011;6454;43.304;24.344;2022-10-23T09:43:21;1.70;;;1.30;;
12780;SDS011;6454;43.304;24.344;2022-10-23T09:45:55;3.95;;;1.85;;
12780;SDS011;6454;43.304;24.344;2022-10-23T09:48:24;2.60;;;1.60;;
12780;SDS011;6454;43.304;24.344;2022-10-23T09:50:54;2.75;;;1.38;;
12780;SDS011;6454;43.304;24.344;2022-10-23T09:53:28;2.20;;;1.55;;
12780;SDS011;6454;43.304;24.344;2022-10-23T09:55:59;1.80;;;1.55;;
12780;SDS011;6454;43.304;24.344;2022-10-23T09:58:32;2.75;;;1.77;;
12780;SDS011;6454;43.304;24.344;2022-10-23T10:01:02;1.95;;;1.52;;
12780;SDS011;6454;43.304;24.344;2022-10-23T10:03:29;2.13;;;1.70;;
12780;SDS011;6454;43.304;24.344;2022-10-23T10:05:59;3.97;;;1.70;;
12780;SDS011;6454;43.304;24.344;2022-10-23T10:08:29;1.90;;;1.80;;
12780;SDS011;6454;43.304;24.344;2022-10-23T10:11:03;2.75;;;1.73;;
12780;SDS011;6454;43.304;24.344;2022-10-23T10:16:46;4.18;;;1.70;;
12780;SDS011;6454;43.304;24.344;2022-10-23T10:19:20;3.00;;;1.60;;
12780;SDS011;6454;43.304;24.344;2022-10-23T10:21:59;3.30;;;1.85;;
12780;SDS011;6454;43.304;24.344;2022-10-23T10:24:38;1.90;;;1.38;;
12780;SDS011;6454;43.304;24.344;2022-10-23T10:27:15;3.50;;;1.60;;
12780;SDS011;6454;43.304;24.344;2022-10-23T10:29:56;1.90;;;1.50;;
12780;SDS011;6454;43.304;24.344;2022-10-23T10:32:33;1.88;;;1.52;;
12780;SDS011;6454;43.304;24.344;2022-10-23T10:35:16;1.67;;;1.58;;
12780;SDS011;6454;43.304;24.344;2022-10-23T10:37:53;3.60;;;1.80;;
12780;SDS011;6454;43.304;24.344;2022-10-23T10:40:31;4.25;;;1.90;;
12780;SDS011;6454;43.304;24.344;2022-10-23T10:43:05;1.92;;;1.70;;
12780;SDS011;6454;43.304;24.344;2022-10-23T10:45:42;2.22;;;1.80;;
12780;SDS011;6454;43.304;24.344;2022-10-23T10:48:25;4.07;;;2.10;;
12780;SDS011;6454;43.304;24.344;2022-10-23T10:51:05;7.57;;;6.78;;
12780;SDS011;6454;43.304;24.344;2022-10-23T10:53:42;3.25;;;2.63;;
12780;SDS011;6454;43.304;24.344;2022-10-23T10:56:32;2.67;;;1.73;;
12780;SDS011;6454;43.304;24.344;2022-10-23T10:59:03;2.15;;;1.95;;
12780;SDS011;6454;43.304;24.344;2022-10-23T11:01:39;2.55;;;1.67;;
12780;SDS011;6454;43.304;24.344;2022-10-23T11:04:10;2.05;;;1.75;;
12780;SDS011;6454;43.304;24.344;2022-10-23T11:06:44;3.40;;;1.75;;
12780;SDS011;6454;43.304;24.344;2022-10-23T11:09:16;3.15;;;2.08;;
12780;SDS011;6454;43.304;24.344;2022-10-23T11:11:47;2.00;;;1.80;;
12780;SDS011;6454;43.304;24.344;2022-10-23T11:14:14;5.05;;;1.55;;
12780;SDS011;6454;43.304;24.344;2022-10-23T11:16:44;2.42;;;1.70;;
12780;SDS011;6454;43.304;24.344;2022-10-23T11:19:16;1.75;;;1.60;;
12780;SDS011;6454;43.304;24.344;2022-10-23T11:21:49;1.75;;;1.65;;
12780;SDS011;6454;43.304;24.344;2022-10-23T11:27:41;3.65;;;1.77;;
12780;SDS011;6454;43.304;24.344;2022-10-23T11:30:22;3.95;;;2.00;;
12780;SDS011;6454;43.304;24.344;2022-10-23T11:32:59;3.25;;;1.85;;
12780;SDS011;6454;43.304;24.344;2022-10-23T11:35:51;4.18;;;1.65;;
12780;SDS011;6454;43.304;24.344;2022-10-23T11:38:29;2.75;;;1.90;;
12780;SDS011;6454;43.304;24.344;2022-10-23T11:41:00;7.78;;;2.20;;
12780;SDS011;6454;43.304;24.344;2022-10-23T11:43:29;2.03;;;1.80;;
12780;SDS011;6454;43.304;24.344;2022-10-23T11:45:58;1.98;;;1.77;;
12780;SDS011;6454;43.304;24.344;2022-10-23T11:48:37;1.50;;;1.40;;
12780;SDS011;6454;43.304;24.344;2022-10-23T11:53:52;2.10;;;1.70;;
12780;SDS011;6454;43.304;24.344;2022-10-23T11:56:23;1.55;;;1.45;;
12780;SDS011;6454;43.304;24.344;2022-10-23T11:58:52;2.13;;;1.85;;
12780;SDS011;6454;43.304;24.344;2022-10-23T12:01:26;6.35;;;2.22;;
12780;SDS011;6454;43.304;24.344;2022-10-23T12:03:57;3.20;;;1.88;;
12780;SDS011;6454;43.304;24.344;2022-10-23T12:06:28;2.42;;;1.70;;
12780;SDS011;6454;43.304;24.344;2022-10-23T12:08:59;1.85;;;1.60;;
12780;SDS011;6454;43.304;24.344;2022-10-23T12:11:42;2.63;;;1.80;;
12780;SDS011;6454;43.304;24.344;2022-10-23T12:14:25;3.17;;;2.10;;
12780;SDS011;6454;43.304;24.344;2022-10-23T12:16:53;2.70;;;2.00;;
12780;SDS011;6454;43.304;24.344;2022-10-23T12:19:21;1.80;;;1.60;;
12780;SDS011;6454;43.304;24.344;2022-10-23T12:21:50;2.22;;;2.00;;
12780;SDS011;6454;43.304;24.344;2022-10-23T12:24:25;2.20;;;1.80;;
12780;SDS011;6454;43.304;24.344;2022-10-23T12:27:15;2.40;;;1.80;;
12780;SDS011;6454;43.304;24.344;2022-10-23T12:29:56;2.05;;;1.65;;
12780;SDS011;6454;43.304;24.344;2022-10-23T12:32:32;1.67;;;1.58;;
12780;SDS011;6454;43.304;24.344;2022-10-23T12:35:19;1.52;;;1.40;;
12780;SDS011;6454;43.304;24.344;2022-10-23T12:37:55;3.97;;;1.70;;
12780;SDS011;6454;43.304;24.344;2022-10-23T12:40:29;1.98;;;1.77;;
12780;SDS011;6454;43.304;24.344;2022-10-23T12:42:58;2.08;;;1.85;;
12780;SDS011;6454;43.304;24.344;2022-10-23T12:45:26;1.60;;;1.50;;
12780;SDS011;6454;43.304;24.344;2022-10-23T12:47:55;1.92;;;1.67;;
12780;SDS011;6454;43.304;24.344;2022-10-23T12:50:23;1.60;;;1.50;;
12780;SDS011;6454;43.304;24.344;2022-10-23T12:52:52;2.25;;;1.70;;
12780;SDS011;6454;43.304;24.344;2022-10-23T12:55:22;3.50;;;1.60;;
12780;SDS011;6454;43.304;24.344;2022-10-23T12:57:51;2.17;;;1.50;;
12780;SDS011;6454;43.304;24.344;2022-10-23T13:00:21;2.60;;;1.60;;
12780;SDS011;6454;43.304;24.344;2022-10-23T13:02:56;3.47;;;1.48;;
12780;SDS011;6454;43.304;24.344;2022-10-23T13:05:23;1.52;;;1.42;;
12780;SDS011;6454;43.304;24.344;2022-10-23T13:07:51;2.22;;;1.65;;
12780;SDS011;6454;43.304;24.344;2022-10-23T13:10:19;3.05;;;1.58;;
12780;SDS011;6454;43.304;24.344;2022-10-23T13:12:49;2.30;;;1.75;;
12780;SDS011;6454;43.304;24.344;2022-10-23T13:15:22;1.92;;;1.45;;
12780;SDS011;6454;43.304;24.344;2022-10-23T13:18:00;5.30;;;1.58;;
12780;SDS011;6454;43.304;24.344;2022-10-23T13:20:29;1.52;;;1.42;;
12780;SDS011;6454;43.304;24.344;2022-10-23T13:23:00;1.52;;;1.42;;
12780;SDS011;6454;43.304;24.344;2022-10-23T13:25:35;1.50;;;1.40;;
12780;SDS011;6454;43.304;24.344;2022-10-23T13:28:19;1.58;;;1.45;;
12780;SDS011;6454;43.304;24.344;2022-10-23T13:31:00;2.42;;;1.33;;
12780;SDS011;6454;43.304;24.344;2022-10-23T13:33:34;1.30;;;1.20;;
12780;SDS011;6454;43.304;24.344;2022-10-23T13:36:03;2.63;;;1.73;;
12780;SDS011;6454;43.304;24.344;2022-10-23T13:38:33;1.63;;;1.52;;
12780;SDS011;6454;43.304;24.344;2022-10-23T13:41:02;1.45;;;1.35;;
12780;SDS011;6454;43.304;24.344;2022-10-23T13:43:30;2.70;;;1.67;;
12780;SDS011;6454;43.304;24.344;2022-10-23T13:45:59;3.80;;;1.95;;
12780;SDS011;6454;43.304;24.344;2022-10-23T13:48:26;1.65;;;1.50;;
12780;SDS011;6454;43.304;24.344;2022-10-23T13:50:56;2.10;;;1.60;;
12780;SDS011;6454;43.304;24.344;2022-10-23T13:53:27;1.40;;;1.30;;
12780;SDS011;6454;43.304;24.344;2022-10-23T13:55:54;1.45;;;1.35;;
12780;SDS011;6454;43.304;24.344;2022-10-23T13:58:21;1.60;;;1.50;;
12780;SDS011;6454;43.304;24.344;2022-10-23T14:00:48;3.50;;;1.40;;
12780;SDS011;6454;43.304;24.344;2022-10-23T14:03:17;1.60;;;1.50;;
12780;SDS011;6454;43.304;24.344;2022-10-23T14:05:48;1.50;;;1.35;;
12780;SDS011;6454;43.304;24.344;2022-10-23T14:08:15;2.03;;;1.38;;
12780;SDS011;6454;43.304;24.344;2022-10-23T14:10:42;1.75;;;1.40;;
12780;SDS011;6454;43.304;24.344;2022-10-23T14:13:09;1.48;;;1.30;;
12780;SDS011;6454;43.304;24.344;2022-10-23T14:15:36;1.65;;;1.30;;
12780;SDS011;6454;43.304;24.344;2022-10-23T14:18:03;2.38;;;1.40;;
12780;SDS011;6454;43.304;24.344;2022-10-23T14:20:32;4.20;;;1.58;;
12780;SDS011;6454;43.304;24.344;2022-10-23T14:23:03;1.55;;;1.40;;
12780;SDS011;6454;43.304;24.344;2022-10-23T14:25:30;2.75;;;1.38;;
12780;SDS011;6454;43.304;24.344;2022-10-23T14:27:57;2.22;;;1.50;;
12780;SDS011;6454;43.304;24.344;2022-10-23T14:30:24;1.30;;;1.20;;
12780;SDS011;6454;43.304;24.344;2022-10-23T14:32:51;1.98;;;1.40;;
12780;SDS011;6454;43.304;24.344;2022-10-23T14:35:18;1.63;;;1.20;;
12780;SDS011;6454;43.304;24.344;2022-10-23T14:37:46;1.70;;;1.52;;
12780;SDS011;6454;43.304;24.344;2022-10-23T14:40:13;1.45;;;1.35;;
12780;SDS011;6454;43.304;24.344;2022-10-23T14:42:40;2.40;;;1.40;;
12780;SDS011;6454;43.304;24.344;2022-10-23T14:45:07;1.70;;;1.40;;
12780;SDS011;6454;43.304;24.344;2022-10-23T14:47:35;2.08;;;1.25;;
12780;SDS011;6454;43.304;24.344;2022-10-23T14:50:02;1.40;;;1.30;;
12780;SDS011;6454;43.304;24.344;2022-10-23T14:52:29;1.42;;;1.33;;
12780;SDS011;6454;43.304;24.344;2022-10-23T14:54:57;1.25;;;1.13;;
12780;SDS011;6454;43.304;24.344;2022-10-23T14:57:25;2.63;;;1.60;;
12780;SDS011;6454;43.304;24.344;2022-10-23T14:59:52;3.03;;;1.30;;
12780;SDS011;6454;43.304;24.344;2022-10-23T15:02:19;1.63;;;1.48;;
12780;SDS011;6454;43.304;24.344;2022-10-23T15:04:46;1.48;;;1.33;;
12780;SDS011;6454;43.304;24.344;2022-10-23T15:07:13;1.77;;;1.48;;
12780;SDS011;6454;43.304;24.344;2022-10-23T15:09:40;1.55;;;1.45;;
12780;SDS011;6454;43.304;24.344;2022-10-23T15:12:08;1.55;;;1.30;;
12780;SDS011;6454;43.304;24.344;2022-10-23T15:14:35;1.65;;;1.40;;